Time;durP1;ratioP1;P1;durP2;ratioP2;P2;SDS_P1;SDS_P2;PMS_P1;PMS_P2;Temp;Humidity;BMP_temperature;BMP_pressure;BME280_temperature;BME280_humidity;BME280_pressure;Samples;Min_cycle;Max_cycle;Signal;HPM_P1;HPM_P2
2020/12/28 00:02:14;;;;;;;9.02;3.72;;;2.70;99.90;;;;;;4982372;28;20443;-70
2020/12/28 00:04:40;;;;;;;6.90;3.40;;;2.70;99.90;;;;;;4982022;28;20030;-70
2020/12/28 00:07:06;;;;;;;7.00;3.60;;;2.70;99.90;;;;;;4979547;28;20038;-70
2020/12/28 00:09:33;;;;;;;7.55;3.92;;;2.60;99.90;;;;;;4982168;28;20117;-70
2020/12/28 00:11:59;;;;;;;9.50;3.78;;;2.60;99.90;;;;;;4973898;28;20038;-70
2020/12/28 00:14:26;;;;;;;10.50;3.72;;;2.60;99.90;;;;;;4980713;28;20034;-70
2020/12/28 00:16:52;;;;;;;6.70;3.50;;;2.60;99.90;;;;;;4981383;28;20065;-70
2020/12/28 00:19:18;;;;;;;7.97;3.90;;;2.50;99.90;;;;;;4981843;28;20072;-70
2020/12/28 00:21:44;;;;;;;10.50;3.90;;;2.50;99.90;;;;;;4979248;28;20112;-70
2020/12/28 00:24:10;;;;;;;8.70;4.03;;;2.50;99.90;;;;;;4981678;28;20360;-70
2020/12/28 00:26:43;;;;;;;7.88;3.80;;;2.50;99.90;;;;;;4980528;28;20905;-70
2020/12/28 00:29:10;;;;;;;6.38;3.53;;;2.40;99.90;;;;;;4981386;28;20494;-70
2020/12/28 00:31:36;;;;;;;6.88;3.72;;;2.40;99.90;;;;;;4979779;28;20501;-72
2020/12/28 00:34:03;;;;;;;6.72;3.72;;;2.50;99.90;;;;;;4981374;28;20038;-72
2020/12/28 00:36:29;;;;;;;8.85;4.20;;;2.40;99.90;;;;;;4980428;28;20108;-70
2020/12/28 00:38:55;;;;;;;8.00;3.28;;;2.40;99.90;;;;;;4980679;28;20534;-70
2020/12/28 00:41:21;;;;;;;6.75;3.80;;;2.30;99.90;;;;;;4981231;28;20045;-72
2020/12/28 00:43:46;;;;;;;8.23;4.05;;;2.20;99.90;;;;;;4978475;28;20042;-73
2020/12/28 00:46:13;;;;;;;8.00;4.07;;;2.30;99.90;;;;;;4980478;28;20026;-73
2020/12/28 00:48:39;;;;;;;7.07;3.33;;;2.20;99.90;;;;;;4981321;28;20026;-73
2020/12/28 00:51:05;;;;;;;5.90;3.72;;;2.10;99.90;;;;;;5000447;28;20039;-72
2020/12/28 00:53:32;;;;;;;8.35;3.55;;;2.00;99.90;;;;;;4977496;28;20041;-73
2020/12/28 00:55:59;;;;;;;7.38;3.92;;;2.00;99.90;;;;;;4980106;28;20125;-73
2020/12/28 00:58:25;;;;;;;8.68;3.80;;;2.00;99.90;;;;;;4996546;28;20035;-73
2020/12/28 01:01:00;;;;;;;;;;;2.00;99.90;;;;;;4975244;28;20041;-73
2020/12/28 01:03:27;;;;;;;12.95;3.80;;;2.00;99.90;;;;;;4981173;28;19921;-73
2020/12/28 01:06:12;;;;;;;;;;;2.00;99.90;;;;;;4975652;28;20034;-73
2020/12/28 01:08:42;;;;;;;7.43;3.85;;;1.90;99.90;;;;;;4978934;28;19909;-73
2020/12/28 01:11:08;;;;;;;7.70;4.00;;;1.90;99.90;;;;;;4975797;28;20038;-73
2020/12/28 01:13:35;;;;;;;8.52;4.22;;;1.90;99.90;;;;;;4977462;28;20169;-73
2020/12/28 01:16:01;;;;;;;8.48;4.03;;;2.00;99.90;;;;;;4975456;28;20150;-72
2020/12/28 01:18:30;;;;;;;6.60;3.92;;;2.00;99.90;;;;;;4976702;28;20060;-72
2020/12/28 01:21:00;;;;;;;8.02;3.90;;;2.00;99.90;;;;;;4993548;28;20035;-73
2020/12/28 01:23:38;;;;;;;8.90;4.13;;;2.00;99.90;;;;;;4977993;28;20120;-72
2020/12/28 01:26:08;;;;;;;8.82;4.30;;;2.00;99.90;;;;;;4978075;28;20030;-72
2020/12/28 01:28:38;;;;;;;9.38;5.05;;;2.00;99.90;;;;;;4962689;28;20062;-73
2020/12/28 01:31:04;;;;;;;9.48;4.30;;;2.00;99.90;;;;;;4975872;28;20035;-72
2020/12/28 01:34:02;;;;;;;8.30;4.25;;;2.00;99.90;;;;;;4974239;28;20081;-72
2020/12/28 01:36:33;;;;;;;8.90;3.97;;;2.00;99.90;;;;;;4995756;28;20067;-72
2020/12/28 01:39:04;;;;;;;6.93;4.00;;;2.10;99.90;;;;;;5003277;28;20026;-72
2020/12/28 01:41:30;;;;;;;8.93;4.20;;;2.00;99.90;;;;;;5011361;28;20030;-72
2020/12/28 01:43:56;;;;;;;8.63;4.72;;;2.00;99.90;;;;;;4979527;28;20141;-73
2020/12/28 01:46:23;;;;;;;8.80;4.55;;;2.10;99.90;;;;;;4978952;28;20042;-72
2020/12/28 01:48:51;;;;;;;8.85;4.20;;;2.10;99.90;;;;;;4996821;28;20034;-73
2020/12/28 01:51:20;;;;;;;7.05;4.10;;;2.00;99.90;;;;;;4975818;28;20038;-72
2020/12/28 01:53:47;;;;;;;8.70;4.28;;;2.00;99.90;;;;;;4978391;28;20034;-72
2020/12/28 01:56:27;;;;;;;8.13;4.35;;;2.00;99.90;;;;;;4975034;28;20035;-72
2020/12/28 01:58:52;;;;;;;11.77;5.00;;;2.00;99.90;;;;;;4979491;28;20053;-73
2020/12/28 02:01:24;;;;;;;8.70;5.05;;;2.10;99.90;;;;;;4975859;28;20085;-73
2020/12/28 02:03:51;;;;;;;10.25;4.70;;;2.10;99.90;;;;;;4969046;28;20027;-72
2020/12/28 02:06:24;;;;;;;10.73;4.53;;;2.00;99.90;;;;;;4977356;28;20682;-72
2020/12/28 02:08:50;;;;;;;10.88;5.28;;;2.10;99.90;;;;;;4978637;28;20041;-73
2020/12/28 02:11:16;;;;;;;9.75;4.43;;;2.00;99.90;;;;;;4974679;28;20511;-72
2020/12/28 02:13:43;;;;;;;10.40;5.03;;;2.00;99.90;;;;;;4975711;28;20669;-72
2020/12/28 02:16:27;;;;;;;9.32;5.07;;;2.00;99.90;;;;;;4977818;28;20068;-72
2020/12/28 02:19:03;;;;;;;8.27;4.50;;;2.00;99.90;;;;;;4978216;28;20030;-72
2020/12/28 02:21:35;;;;;;;13.05;5.78;;;2.00;99.90;;;;;;4977931;28;20053;-72
2020/12/28 02:24:01;;;;;;;9.48;4.95;;;2.10;99.90;;;;;;4974955;28;20755;-72
2020/12/28 02:26:29;;;;;;;11.50;5.85;;;2.00;99.90;;;;;;4974748;28;20030;-72
2020/12/28 02:28:55;;;;;;;15.18;5.00;;;2.00;99.90;;;;;;4978377;28;20724;-72
2020/12/28 02:31:21;;;;;;;9.88;4.90;;;2.10;99.90;;;;;;4979325;28;20487;-72
2020/12/28 02:34:09;;;;;;;10.68;5.13;;;2.10;99.90;;;;;;4970915;28;20707;-72
2020/12/28 02:36:44;;;;;;;8.73;5.03;;;2.10;99.90;;;;;;4977450;28;20038;-73
2020/12/28 02:39:10;;;;;;;13.00;5.80;;;2.00;99.90;;;;;;4973798;28;20574;-72
2020/12/28 02:41:36;;;;;;;8.80;4.57;;;2.00;99.90;;;;;;4968688;28;20031;-72
2020/12/28 02:44:20;;;;;;;11.57;5.22;;;2.00;99.90;;;;;;4980791;28;20095;-73
2020/12/28 02:47:04;;;;;;;10.52;5.25;;;1.90;99.90;;;;;;4979379;28;20991;-72
2020/12/28 02:49:48;;;;;;;10.15;5.30;;;1.90;99.90;;;;;;4979484;28;20058;-72
2020/12/28 02:52:32;;;;;;;9.90;4.97;;;1.80;99.90;;;;;;4978898;28;20191;-73
2020/12/28 02:55:17;;;;;;;12.82;5.10;;;1.80;99.90;;;;;;4975502;28;20049;-72
2020/12/28 02:58:01;;;;;;;9.93;5.90;;;1.80;99.90;;;;;;4978511;28;20092;-73
2020/12/28 03:00:45;;;;;;;10.10;5.15;;;1.80;99.90;;;;;;4979803;28;20057;-72
2020/12/28 03:03:29;;;;;;;11.68;5.15;;;1.80;99.90;;;;;;4979684;28;20136;-72
2020/12/28 03:06:13;;;;;;;10.13;5.18;;;1.80;99.90;;;;;;4975336;28;20042;-73
2020/12/28 03:08:57;;;;;;;9.15;4.95;;;1.80;99.90;;;;;;4978857;28;20053;-72
2020/12/28 03:11:43;;;;;;;9.80;5.13;;;1.80;99.90;;;;;;4978917;28;20049;-73
2020/12/28 03:14:27;;;;;;;13.77;5.97;;;1.80;99.90;;;;;;4979092;28;20425;-72
2020/12/28 03:17:19;;;;;;;12.55;5.50;;;1.80;99.90;;;;;;4962124;28;20054;-71
2020/12/28 03:20:03;;;;;;;10.75;5.60;;;1.90;99.90;;;;;;4973413;28;20089;-72
2020/12/28 03:22:47;;;;;;;11.52;5.28;;;1.90;99.90;;;;;;4982562;28;20045;-72
2020/12/28 03:25:31;;;;;;;13.23;6.20;;;1.90;99.90;;;;;;4981806;28;20073;-72
2020/12/28 03:28:16;;;;;;;10.90;5.32;;;2.00;99.90;;;;;;4978353;28;20048;-72
2020/12/28 03:31:00;;;;;;;11.93;5.40;;;2.00;99.90;;;;;;4976517;28;20734;-73
2020/12/28 03:33:44;;;;;;;11.25;5.38;;;2.10;99.90;;;;;;4981513;28;20644;-72
2020/12/28 03:36:28;;;;;;;9.88;5.18;;;2.10;99.90;;;;;;4980119;28;20057;-73
2020/12/28 03:39:12;;;;;;;10.85;5.30;;;2.20;99.90;;;;;;4978380;28;20049;-73
2020/12/28 03:41:56;;;;;;;11.10;5.75;;;2.20;99.90;;;;;;4982223;28;20108;-73
2020/12/28 03:44:54;;;;;;;14.13;4.85;;;2.10;99.90;;;;;;4968368;28;20045;-73
2020/12/28 03:47:38;;;;;;;9.05;5.03;;;2.10;99.90;;;;;;4982816;28;20549;-72
2020/12/28 03:50:23;;;;;;;9.77;5.57;;;2.10;99.90;;;;;;4983016;28;20065;-73
2020/12/28 03:53:08;;;;;;;9.90;5.00;;;2.20;99.90;;;;;;4982534;28;20057;-73
2020/12/28 03:55:52;;;;;;;14.73;5.45;;;2.20;99.90;;;;;;4981901;28;20072;-72
2020/12/28 03:58:40;;;;;;;8.70;5.15;;;2.20;99.90;;;;;;4974251;28;20177;-73
2020/12/28 04:01:25;;;;;;;10.25;5.88;;;2.20;99.90;;;;;;4982492;28;20768;-72
2020/12/28 04:04:08;;;;;;;10.18;5.15;;;2.10;99.90;;;;;;4977107;28;20200;-72
2020/12/28 04:06:53;;;;;;;11.25;5.78;;;2.20;99.90;;;;;;4982305;28;20389;-73
2020/12/28 04:09:37;;;;;;;12.27;5.38;;;2.20;99.90;;;;;;4982444;28;20859;-73
2020/12/28 04:12:25;;;;;;;11.27;5.65;;;2.20;99.90;;;;;;4983824;28;20105;-73
2020/12/28 04:14:51;;;;;;;13.73;6.28;;;2.20;99.90;;;;;;4982190;28;20030;-72
2020/12/28 04:17:17;;;;;;;10.45;5.80;;;2.20;99.90;;;;;;4982018;28;20036;-72
2020/12/28 04:19:42;;;;;;;10.57;5.70;;;2.30;99.90;;;;;;4980394;28;20030;-73
2020/12/28 04:22:08;;;;;;;10.75;5.63;;;2.30;99.90;;;;;;4977690;28;20049;-71
2020/12/28 04:24:35;;;;;;;9.63;5.43;;;2.30;99.90;;;;;;4979859;28;20037;-72
2020/12/28 04:27:00;;;;;;;8.88;5.30;;;2.30;99.90;;;;;;4975287;28;20041;-71
2020/12/28 04:29:26;;;;;;;11.02;5.75;;;2.30;99.90;;;;;;4981634;28;20030;-72
2020/12/28 04:31:52;;;;;;;11.38;5.50;;;2.20;99.90;;;;;;4974577;28;20037;-72
2020/12/28 04:34:17;;;;;;;11.55;5.32;;;2.30;99.90;;;;;;4977211;28;20050;-73
2020/12/28 04:36:43;;;;;;;13.40;6.50;;;2.30;99.90;;;;;;4980695;28;20510;-73
2020/12/28 04:39:09;;;;;;;12.82;6.15;;;2.30;99.90;;;;;;4977274;28;20030;-72
2020/12/28 04:41:35;;;;;;;13.13;6.72;;;2.30;99.90;;;;;;4977928;28;20438;-73
2020/12/28 04:44:01;;;;;;;9.35;5.60;;;2.20;99.90;;;;;;5001717;28;20117;-71
2020/12/28 04:46:30;;;;;;;10.65;6.05;;;2.20;99.90;;;;;;4977691;28;20045;-71
2020/12/28 04:48:57;;;;;;;12.65;6.43;;;2.20;99.90;;;;;;4981412;28;20089;-69
2020/12/28 04:51:23;;;;;;;10.45;5.80;;;2.30;99.90;;;;;;4979465;28;20057;-71
2020/12/28 04:53:52;;;;;;;12.80;6.90;;;2.20;99.90;;;;;;4979303;28;20030;-70
2020/12/28 04:56:21;;;;;;;12.13;6.40;;;2.30;99.90;;;;;;4973006;28;20054;-71
2020/12/28 04:58:47;;;;;;;11.65;6.38;;;2.30;99.90;;;;;;4981807;28;20022;-72
2020/12/28 05:01:13;;;;;;;10.50;5.90;;;2.30;99.90;;;;;;4981708;28;20030;-72
2020/12/28 05:03:40;;;;;;;10.88;5.28;;;2.30;99.90;;;;;;4979246;28;20030;-70
2020/12/28 05:06:06;;;;;;;9.88;5.72;;;2.20;99.90;;;;;;4981185;28;20033;-71
2020/12/28 05:08:32;;;;;;;10.35;5.40;;;2.20;99.90;;;;;;4980892;28;20761;-72
2020/12/28 05:11:08;;;;;;;11.32;6.10;;;2.10;99.90;;;;;;4980574;28;20053;-72
2020/12/28 05:13:34;;;;;;;11.55;6.05;;;2.10;99.90;;;;;;4980801;28;20037;-71
2020/12/28 05:16:00;;;;;;;10.65;5.60;;;2.20;99.90;;;;;;4974423;28;20333;-72
2020/12/28 05:18:25;;;;;;;12.18;6.00;;;2.20;99.90;;;;;;4979566;28;20122;-71
2020/12/28 05:20:51;;;;;;;10.90;6.00;;;2.10;99.90;;;;;;4981049;28;20046;-71
2020/12/28 05:23:19;;;;;;;13.45;5.82;;;2.10;99.90;;;;;;4981158;28;20022;-69
2020/12/28 05:25:46;;;;;;;11.10;5.85;;;2.10;99.90;;;;;;4980100;28;20046;-69
2020/12/28 05:28:26;;;;;;;12.40;6.63;;;2.10;99.90;;;;;;4979364;28;20502;-73
2020/12/28 05:30:52;;;;;;;11.90;6.63;;;2.10;99.90;;;;;;4978283;28;20045;-72
2020/12/28 05:33:18;;;;;;;12.35;6.60;;;2.10;99.90;;;;;;4980432;28;20034;-72
2020/12/28 05:35:46;;;;;;;9.73;5.93;;;2.10;99.90;;;;;;4979949;28;20034;-73
2020/12/28 05:38:13;;;;;;;12.13;6.00;;;2.10;99.90;;;;;;4981045;28;20050;-72
2020/12/28 05:40:39;;;;;;;13.15;5.95;;;2.10;99.90;;;;;;4979946;28;20081;-72
2020/12/28 05:43:06;;;;;;;12.68;6.78;;;2.20;99.90;;;;;;4980614;28;20039;-72
2020/12/28 05:45:32;;;;;;;15.00;7.28;;;2.20;99.90;;;;;;4979478;28;20109;-72
2020/12/28 05:47:59;;;;;;;10.90;6.18;;;2.30;99.90;;;;;;4979818;28;20046;-72
2020/12/28 05:50:30;;;;;;;11.15;6.05;;;2.30;99.90;;;;;;4979902;28;20096;-72
2020/12/28 05:52:58;;;;;;;11.88;6.53;;;2.30;99.90;;;;;;4979768;28;20038;-72
2020/12/28 05:55:25;;;;;;;11.40;6.32;;;2.30;99.90;;;;;;4979282;28;20038;-74
2020/12/28 05:57:53;;;;;;;11.50;6.18;;;2.40;99.90;;;;;;4977706;28;20117;-72
2020/12/28 06:00:19;;;;;;;11.65;6.13;;;2.40;99.90;;;;;;4975272;28;20038;-72
2020/12/28 06:02:45;;;;;;;10.18;6.15;;;2.40;99.90;;;;;;4978777;28;20214;-72
2020/12/28 06:05:12;;;;;;;10.52;6.18;;;2.40;99.90;;;;;;4979823;28;20030;-72
2020/12/28 06:07:37;;;;;;;11.23;6.50;;;2.40;99.90;;;;;;4979516;28;20049;-72
2020/12/28 06:10:05;;;;;;;14.50;5.97;;;2.40;99.90;;;;;;4978976;28;20034;-73
2020/12/28 06:12:31;;;;;;;11.65;6.97;;;2.40;99.90;;;;;;4977819;28;20066;-72
2020/12/28 06:14:58;;;;;;;10.75;6.05;;;2.50;99.90;;;;;;4979312;28;20245;-71
2020/12/28 06:17:36;;;;;;;12.77;6.68;;;2.50;99.90;;;;;;4979123;28;20038;-72
2020/12/28 06:20:05;;;;;;;11.68;6.20;;;2.50;99.90;;;;;;4975392;28;20031;-72
2020/12/28 06:22:32;;;;;;;11.45;6.43;;;2.60;99.90;;;;;;4977108;28;20038;-71
2020/12/28 06:25:02;;;;;;;13.55;6.20;;;2.60;99.90;;;;;;4972299;28;20054;-72
2020/12/28 06:27:30;;;;;;;12.10;6.38;;;2.60;99.90;;;;;;4972942;28;20394;-72
2020/12/28 06:30:10;;;;;;;11.18;6.22;;;2.60;99.90;;;;;;4973074;28;20054;-71
2020/12/28 06:32:36;;;;;;;13.02;6.47;;;2.60;99.90;;;;;;4972863;28;20063;-72
2020/12/28 06:35:04;;;;;;;9.93;6.18;;;2.60;99.90;;;;;;4975092;28;20130;-72
2020/12/28 06:37:38;;;;;;;11.93;6.63;;;2.60;99.90;;;;;;4976127;28;20041;-72
2020/12/28 06:40:04;;;;;;;12.77;6.35;;;2.60;99.90;;;;;;4968947;28;20042;-72
2020/12/28 06:42:30;;;;;;;15.32;6.40;;;2.50;99.90;;;;;;4969835;28;20026;-72
2020/12/28 06:44:55;;;;;;;12.15;6.72;;;2.50;99.90;;;;;;4976896;28;20034;-70
2020/12/28 06:47:30;;;;;;;10.70;6.35;;;2.50;99.90;;;;;;4978985;28;20026;-75
2020/12/28 06:49:55;;;;;;;40.92;17.08;;;2.50;99.90;;;;;;4977404;28;20050;-74
2020/12/28 06:52:21;;;;;;;10.00;5.90;;;2.40;99.90;;;;;;4977722;28;20034;-72
2020/12/28 06:54:47;;;;;;;10.32;6.30;;;2.50;99.90;;;;;;4975467;28;20030;-72
2020/12/28 06:57:13;;;;;;;12.65;6.40;;;2.40;99.90;;;;;;4973512;28;20058;-73
2020/12/28 06:59:40;;;;;;;10.25;6.03;;;2.30;99.90;;;;;;4980243;28;20078;-72
2020/12/28 07:02:06;;;;;;;13.70;7.15;;;2.40;99.90;;;;;;4982518;28;20109;-72
2020/12/28 07:04:37;;;;;;;11.23;6.15;;;2.40;99.90;;;;;;4977070;28;20772;-73
2020/12/28 07:07:07;;;;;;;13.18;7.03;;;2.40;99.90;;;;;;4976349;28;20558;-73
2020/12/28 07:09:34;;;;;;;10.25;6.07;;;2.40;99.90;;;;;;4983163;28;20068;-72
2020/12/28 07:12:10;;;;;;;13.18;6.57;;;2.40;99.90;;;;;;4978402;28;20042;-71
2020/12/28 07:14:39;;;;;;;12.50;7.25;;;2.30;99.90;;;;;;4981722;28;20162;-72
2020/12/28 07:17:05;;;;;;;10.98;6.65;;;2.30;99.90;;;;;;4967028;28;20487;-71
2020/12/28 07:19:32;;;;;;;10.27;6.00;;;2.30;99.90;;;;;;4973617;28;20035;-72
2020/12/28 07:21:57;;;;;;;11.55;6.72;;;2.30;99.90;;;;;;4966085;28;20066;-72
2020/12/28 07:24:23;;;;;;;11.05;6.38;;;2.40;99.90;;;;;;4979275;28;20172;-68
2020/12/28 07:26:49;;;;;;;12.05;7.03;;;2.30;99.90;;;;;;4981487;28;20030;-69
2020/12/28 07:29:17;;;;;;;10.68;6.45;;;2.40;99.90;;;;;;4983374;28;20042;-71
2020/12/28 07:31:45;;;;;;;12.20;6.82;;;2.40;99.90;;;;;;4981756;28;20104;-72
2020/12/28 07:34:19;;;;;;;10.05;5.68;;;2.50;99.90;;;;;;4971508;28;20930;-72
2020/12/28 07:36:47;;;;;;;11.23;5.97;;;2.40;99.90;;;;;;4982276;28;20070;-73
2020/12/28 07:39:14;;;;;;;11.52;6.03;;;2.40;99.90;;;;;;4970746;28;20067;-72
2020/12/28 07:41:40;;;;;;;12.20;6.82;;;2.50;99.90;;;;;;4969136;28;20196;-72
2020/12/28 07:44:06;;;;;;;12.65;6.20;;;2.50;99.90;;;;;;4981930;28;20069;-72
2020/12/28 07:46:32;;;;;;;10.95;6.53;;;2.40;99.90;;;;;;4981706;28;20121;-72
2020/12/28 07:49:07;;;;;;;14.77;7.40;;;2.40;99.90;;;;;;4974384;28;20030;-72
2020/12/28 07:51:36;;;;;;;11.65;6.93;;;2.50;99.90;;;;;;4980238;28;20133;-72
2020/12/28 07:54:25;;;;;;;11.68;6.50;;;2.40;99.90;;;;;;4977124;28;20072;-72
2020/12/28 07:56:57;;;;;;;11.02;6.32;;;2.40;99.90;;;;;;4980191;28;20035;-73
2020/12/28 07:59:34;;;;;;;11.18;6.45;;;2.40;99.90;;;;;;4975310;28;20345;-73
2020/12/28 08:02:10;;;;;;;12.63;6.68;;;2.40;99.90;;;;;;4969645;28;20398;-73
2020/12/28 08:04:36;;;;;;;11.77;6.78;;;2.30;99.90;;;;;;4981733;28;20038;-75
2020/12/28 08:07:02;;;;;;;12.45;6.93;;;2.50;99.90;;;;;;4980190;28;20035;-75
2020/12/28 08:09:28;;;;;;;12.20;6.47;;;2.70;99.90;;;;;;4969777;28;20109;-72
2020/12/28 08:12:01;;;;;;;11.65;6.32;;;2.60;99.90;;;;;;4973459;28;20031;-74
2020/12/28 08:14:27;;;;;;;10.27;6.22;;;2.50;99.90;;;;;;4971586;28;20045;-73
2020/12/28 08:16:53;;;;;;;10.52;5.88;;;2.40;99.90;;;;;;4974826;28;20038;-72
2020/12/28 08:19:26;;;;;;;9.98;6.03;;;2.40;99.90;;;;;;4982966;28;20034;-73
2020/12/28 08:21:53;;;;;;;11.15;6.15;;;2.40;99.90;;;;;;4982127;28;20027;-73
2020/12/28 08:24:22;;;;;;;11.18;6.43;;;2.40;99.90;;;;;;4976671;28;20030;-73
2020/12/28 08:26:50;;;;;;;20.25;9.02;;;2.30;99.90;;;;;;4972878;28;20030;-73
2020/12/28 08:29:16;;;;;;;11.77;6.80;;;2.30;99.90;;;;;;4973680;28;20042;-73
2020/12/28 08:31:43;;;;;;;14.35;7.65;;;2.30;99.90;;;;;;4979134;28;20486;-72
2020/12/28 08:34:15;;;;;;;12.48;6.95;;;2.30;99.90;;;;;;4982702;28;20038;-72
2020/12/28 08:36:54;;;;;;;12.50;6.60;;;2.20;99.90;;;;;;4981599;28;20248;-72
2020/12/28 08:39:24;;;;;;;13.75;6.97;;;2.20;99.90;;;;;;4975934;28;20151;-72
2020/12/28 08:41:57;;;;;;;11.60;6.32;;;2.20;99.90;;;;;;4974799;28;20134;-72
2020/12/28 08:44:42;;;;;;;10.27;6.18;;;2.10;99.90;;;;;;4975840;28;20039;-73
2020/12/28 08:47:13;;;;;;;11.40;6.40;;;2.20;99.90;;;;;;4991082;28;20034;-72
2020/12/28 08:49:41;;;;;;;14.00;7.38;;;2.20;99.90;;;;;;4981765;28;20040;-72
2020/12/28 08:52:16;;;;;;;12.82;6.53;;;2.30;99.90;;;;;;4982285;28;20573;-72
2020/12/28 08:54:43;;;;;;;11.35;6.85;;;2.30;99.90;;;;;;4977694;28;21069;-72
2020/12/28 08:57:19;;;;;;;11.60;6.75;;;2.30;99.90;;;;;;4981556;28;20042;-73
2020/12/28 08:59:44;;;;;;;12.63;7.13;;;2.30;99.90;;;;;;4977784;28;20038;-74
2020/12/28 09:02:21;;;;;;;10.18;6.47;;;2.40;99.90;;;;;;4976633;28;20031;-73
2020/12/28 09:04:47;;;;;;;12.73;6.70;;;2.50;99.90;;;;;;4971557;28;20137;-74
2020/12/28 09:07:14;;;;;;;12.90;6.63;;;2.50;99.90;;;;;;4976196;28;20122;-70
2020/12/28 09:09:41;;;;;;;10.27;6.25;;;2.50;99.90;;;;;;4973659;28;20049;-72
2020/12/28 09:12:08;;;;;;;13.35;6.38;;;2.60;99.90;;;;;;4975981;28;20058;-73
2020/12/28 09:14:33;;;;;;;9.68;5.55;;;2.60;99.90;;;;;;4978814;28;20034;-73
2020/12/28 09:16:59;;;;;;;12.18;6.13;;;2.70;99.90;;;;;;4980264;28;20525;-72
2020/12/28 09:19:25;;;;;;;11.75;6.43;;;2.80;99.90;;;;;;4979046;28;20057;-72
2020/12/28 09:21:50;;;;;;;10.50;6.20;;;2.80;99.90;;;;;;4980456;28;20038;-72
2020/12/28 09:24:16;;;;;;;12.20;6.75;;;2.90;99.90;;;;;;4981004;28;20048;-73
2020/12/28 09:26:42;;;;;;;13.57;6.72;;;3.00;99.90;;;;;;4977685;28;20037;-72
2020/12/28 09:29:08;;;;;;;13.63;7.30;;;3.00;99.90;;;;;;4974226;28;20030;-74
2020/12/28 09:31:33;;;;;;;12.50;7.07;;;3.20;99.90;;;;;;4977272;28;20110;-74
2020/12/28 09:33:59;;;;;;;13.25;6.50;;;3.20;99.90;;;;;;4974552;28;20034;-70
2020/12/28 09:36:25;;;;;;;12.73;5.80;;;3.30;99.90;;;;;;4980008;28;20685;-72
2020/12/28 09:38:51;;;;;;;12.85;6.68;;;3.40;99.90;;;;;;4980055;28;20034;-73
2020/12/28 09:41:16;;;;;;;12.95;6.95;;;3.40;99.90;;;;;;4968631;28;20030;-72
2020/12/28 09:43:42;;;;;;;10.68;6.15;;;3.50;99.90;;;;;;4977641;28;20719;-73
2020/12/28 09:46:09;;;;;;;9.55;5.75;;;3.60;99.90;;;;;;4978135;28;20426;-73
2020/12/28 09:48:35;;;;;;;9.80;5.50;;;3.60;99.90;;;;;;4973441;28;20038;-73
2020/12/28 09:51:04;;;;;;;11.10;5.97;;;3.60;99.90;;;;;;4973949;28;20441;-73
2020/12/28 09:53:29;;;;;;;11.55;5.75;;;3.60;99.90;;;;;;4978989;28;20038;-73
2020/12/28 09:55:55;;;;;;;10.77;5.63;;;3.80;99.90;;;;;;4978584;28;20049;-74
2020/12/28 09:58:21;;;;;;;9.25;5.72;;;3.80;99.90;;;;;;4980341;28;20376;-73
2020/12/28 10:00:47;;;;;;;10.80;6.07;;;3.70;99.90;;;;;;4970793;28;20124;-73
2020/12/28 10:03:12;;;;;;;18.50;8.50;;;3.70;99.90;;;;;;4969620;28;20817;-72
2020/12/28 10:05:38;;;;;;;18.50;8.45;;;3.60;99.90;;;;;;4980032;28;20509;-73
2020/12/28 10:08:03;;;;;;;14.32;6.85;;;3.70;99.90;;;;;;4978464;28;20110;-73
2020/12/28 10:10:29;;;;;;;12.10;6.53;;;3.70;99.90;;;;;;5005592;28;20041;-74
2020/12/28 10:12:55;;;;;;;14.85;8.43;;;3.80;99.90;;;;;;4975255;28;20042;-73
2020/12/28 10:15:20;;;;;;;12.70;6.82;;;3.80;99.90;;;;;;4980273;28;20038;-70
2020/12/28 10:18:31;;;;;;;23.70;9.80;;;4.00;99.90;;;;;;4972438;28;20034;-73
2020/12/28 10:20:57;;;;;;;18.33;7.03;;;4.10;99.90;;;;;;4976419;28;20042;-72
2020/12/28 10:23:23;;;;;;;17.98;8.95;;;4.20;99.90;;;;;;4976150;28;20038;-73
2020/12/28 10:25:48;;;;;;;17.35;9.32;;;4.30;99.90;;;;;;4966148;28;20070;-72
2020/12/28 10:28:14;;;;;;;11.10;6.00;;;4.40;99.90;;;;;;4982674;28;20031;-73
2020/12/28 10:30:40;;;;;;;10.73;5.88;;;4.40;99.90;;;;;;4980859;28;20430;-72
2020/12/28 10:33:05;;;;;;;12.38;6.05;;;4.40;99.90;;;;;;4979416;28;20049;-73
2020/12/28 10:35:31;;;;;;;11.60;6.68;;;4.40;99.90;;;;;;4981376;28;20038;-73
2020/12/28 10:37:57;;;;;;;12.50;6.72;;;4.40;99.90;;;;;;4982792;28;20038;-75
2020/12/28 10:40:22;;;;;;;10.93;6.10;;;4.50;99.90;;;;;;4976372;28;20058;-73
2020/12/28 10:42:48;;;;;;;12.98;7.00;;;4.60;99.90;;;;;;4975958;28;20113;-73
2020/12/28 10:45:14;;;;;;;9.18;5.30;;;4.70;99.90;;;;;;4983630;28;20139;-76
2020/12/28 10:47:40;;;;;;;11.93;6.57;;;4.80;99.90;;;;;;4983323;28;20036;-74
2020/12/28 10:50:05;;;;;;;11.40;6.60;;;4.90;99.90;;;;;;4983775;28;20506;-73
2020/12/28 10:52:31;;;;;;;13.13;7.28;;;5.00;99.90;;;;;;4981467;28;20044;-73
2020/12/28 10:54:56;;;;;;;9.70;6.20;;;5.10;99.90;;;;;;4970844;28;20033;-73
2020/12/28 10:57:22;;;;;;;9.02;5.22;;;5.10;99.90;;;;;;4969446;28;20547;-73
2020/12/28 10:59:48;;;;;;;9.85;6.05;;;5.10;99.90;;;;;;4982696;28;20026;-73
2020/12/28 11:02:13;;;;;;;9.75;5.43;;;5.20;99.90;;;;;;4983934;28;20030;-72
2020/12/28 11:04:39;;;;;;;10.40;5.55;;;5.40;99.90;;;;;;4983143;28;20041;-73
2020/12/28 11:07:04;;;;;;;10.82;5.55;;;5.60;99.90;;;;;;4983230;28;20113;-73
2020/12/28 11:09:30;;;;;;;9.77;5.00;;;5.70;99.90;;;;;;4982653;28;20093;-72
2020/12/28 11:11:56;;;;;;;8.90;5.40;;;5.80;99.90;;;;;;4974060;28;20038;-73
2020/12/28 11:14:21;;;;;;;9.93;5.15;;;5.90;99.90;;;;;;4978723;28;20641;-72
2020/12/28 11:16:47;;;;;;;10.07;5.18;;;5.90;99.90;;;;;;4979928;28;20034;-74
2020/12/28 11:19:13;;;;;;;9.48;5.32;;;5.80;99.90;;;;;;4982787;28;20038;-72
2020/12/28 11:21:39;;;;;;;9.35;5.20;;;5.80;99.90;;;;;;4976839;28;20034;-75
2020/12/28 11:24:04;;;;;;;8.10;5.05;;;5.50;99.90;;;;;;4977718;28;20130;-74
2020/12/28 11:26:32;;;;;;;10.05;5.60;;;5.50;99.90;;;;;;4980718;28;20041;-68
2020/12/28 11:28:58;;;;;;;9.82;5.88;;;5.40;99.90;;;;;;4982116;28;20034;-70
2020/12/28 11:31:24;;;;;;;11.05;5.10;;;5.30;99.90;;;;;;4982514;28;20019;-71
2020/12/28 11:33:50;;;;;;;10.95;5.15;;;5.10;99.90;;;;;;4980199;28;20027;-70
2020/12/28 11:36:16;;;;;;;8.50;5.03;;;5.00;99.90;;;;;;4981853;28;20565;-69
2020/12/28 11:38:43;;;;;;;9.38;5.50;;;5.00;99.90;;;;;;4980204;28;20041;-70
2020/12/28 11:41:09;;;;;;;9.38;5.10;;;4.90;99.90;;;;;;4982522;28;20552;-71
2020/12/28 11:43:35;;;;;;;9.88;5.20;;;4.90;99.90;;;;;;4980183;28;20038;-70
2020/12/28 11:46:01;;;;;;;9.90;5.65;;;5.00;99.90;;;;;;4979920;28;20086;-70
2020/12/28 11:48:27;;;;;;;9.43;5.28;;;5.00;99.90;;;;;;4980542;28;20033;-70
2020/12/28 11:50:52;;;;;;;10.48;5.28;;;5.00;99.90;;;;;;4995978;28;20129;-70
2020/12/28 11:53:18;;;;;;;9.88;5.88;;;5.00;99.90;;;;;;4981995;28;20117;-70
2020/12/28 11:58:39;;;;;;;10.63;5.72;;;5.10;99.90;;;;;;4975325;28;20037;-70
2020/12/28 12:01:10;;;;;;;12.30;5.20;;;5.10;99.90;;;;;;4976960;28;20046;-72
2020/12/28 12:03:36;;;;;;;10.65;5.75;;;5.10;99.90;;;;;;4981880;28;20038;-70
2020/12/28 12:06:01;;;;;;;10.70;5.60;;;5.20;99.90;;;;;;4982468;28;20422;-70
2020/12/28 12:08:28;;;;;;;11.55;5.53;;;5.10;99.90;;;;;;4982192;28;20060;-68
2020/12/28 12:10:55;;;;;;;9.38;5.25;;;5.10;99.90;;;;;;4981705;28;20406;-70
2020/12/28 12:13:21;;;;;;;10.20;5.28;;;5.20;99.90;;;;;;4981727;28;20057;-71
2020/12/28 12:15:48;;;;;;;13.15;5.75;;;5.20;99.90;;;;;;4981624;28;20038;-70
2020/12/28 12:18:14;;;;;;;11.18;5.75;;;5.20;99.90;;;;;;4980552;28;20101;-71
2020/12/28 12:20:40;;;;;;;11.60;6.40;;;5.30;99.90;;;;;;4979385;28;20038;-73
2020/12/28 12:23:06;;;;;;;8.93;5.18;;;5.20;99.90;;;;;;4982122;28;20057;-75
2020/12/28 12:25:33;;;;;;;9.85;5.13;;;5.30;99.90;;;;;;4977594;28;20031;-70
2020/12/28 12:27:59;;;;;;;13.70;6.82;;;5.20;99.90;;;;;;4981669;28;20616;-71
2020/12/28 12:30:25;;;;;;;9.45;4.95;;;5.30;99.90;;;;;;4981586;28;20026;-70
2020/12/28 12:32:51;;;;;;;9.63;5.28;;;5.40;99.90;;;;;;4981127;28;20564;-69
2020/12/28 12:35:17;;;;;;;9.57;5.10;;;5.40;99.90;;;;;;4976125;28;20622;-69
2020/12/28 12:37:43;;;;;;;10.93;5.68;;;5.40;99.90;;;;;;4981863;28;20126;-70
2020/12/28 12:40:08;;;;;;;9.20;5.30;;;5.50;99.90;;;;;;4976010;28;20062;-70
2020/12/28 12:42:34;;;;;;;8.00;4.75;;;5.50;99.90;;;;;;4974108;28;20026;-68
2020/12/28 12:45:00;;;;;;;12.38;6.05;;;5.50;99.90;;;;;;4977439;28;20031;-72
2020/12/28 12:47:25;;;;;;;16.50;8.00;;;5.50;99.90;;;;;;4979150;28;20034;-68
2020/12/28 12:49:51;;;;;;;8.82;4.88;;;5.50;99.90;;;;;;4981728;28;20800;-70
2020/12/28 12:52:20;;;;;;;8.73;5.22;;;5.40;99.90;;;;;;4975328;28;20487;-70
2020/12/28 12:54:46;;;;;;;9.93;5.00;;;5.40;99.90;;;;;;4975026;28;20558;-71
2020/12/28 12:57:12;;;;;;;11.02;5.40;;;5.30;99.90;;;;;;4972828;28;20101;-70
2020/12/28 13:02:26;;;;;;;10.70;5.75;;;5.20;99.90;;;;;;4972520;28;20106;-71
2020/12/28 13:04:52;;;;;;;10.43;5.28;;;5.20;99.90;;;;;;4975283;28;20041;-71
2020/12/28 13:07:18;;;;;;;12.65;5.72;;;5.00;99.90;;;;;;4976549;28;20031;-69
2020/12/28 13:09:43;;;;;;;9.90;5.40;;;5.00;99.90;;;;;;4979160;28;20369;-70